Time;durP1;ratioP1;P1;durP2;ratioP2;P2;SDS_P1;SDS_P2;PMS_P1;PMS_P2;Temp;Humidity;BMP_temperature;BMP_pressure;BME280_temperature;BME280_humidity;BME280_pressure;Samples;Min_cycle;Max_cycle;Signal;HPM_P1;HPM_P2
2022/05/28 00:00:17;;;;;;;13.25;1.58;;;15.60;78.60;;;;;;4995629;28;20486;-67
2022/05/28 00:02:43;;;;;;;3.33;0.82;;;15.70;78.50;;;;;;4994455;28;20073;-67
2022/05/28 00:05:09;;;;;;;9.57;1.80;;;15.70;78.40;;;;;;4995227;28;20033;-67
2022/05/28 00:07:35;;;;;;;16.48;1.60;;;15.60;78.10;;;;;;4994861;28;20046;-67
2022/05/28 00:10:01;;;;;;;4.40;1.30;;;15.60;77.90;;;;;;4994149;28;20095;-67
2022/05/28 00:12:31;;;;;;;9.32;1.50;;;15.60;78.00;;;;;;4990695;28;20446;-67
2022/05/28 00:14:57;;;;;;;4.47;1.27;;;15.60;77.90;;;;;;4983267;28;20445;-67
2022/05/28 00:17:24;;;;;;;7.93;1.50;;;15.50;77.70;;;;;;4994048;28;20038;-67
2022/05/28 00:19:51;;;;;;;5.13;0.90;;;15.50;77.80;;;;;;4994972;28;20030;-67
2022/05/28 00:22:17;;;;;;;9.55;1.15;;;15.40;77.90;;;;;;4986941;28;20683;-67
2022/05/28 00:24:43;;;;;;;8.38;1.15;;;15.40;77.90;;;;;;4993765;28;20022;-67
2022/05/28 00:27:09;;;;;;;12.02;1.70;;;15.40;77.90;;;;;;4992061;28;20030;-67
2022/05/28 00:29:34;;;;;;;8.45;1.60;;;15.30;77.80;;;;;;4993188;28;20038;-67
2022/05/28 00:32:00;;;;;;;8.90;1.73;;;15.30;78.70;;;;;;4993307;28;20030;-67
2022/05/28 00:34:27;;;;;;;10.02;1.77;;;15.30;78.20;;;;;;4994033;28;20105;-67
2022/05/28 00:36:53;;;;;;;11.35;1.92;;;15.30;78.30;;;;;;4993728;28;20043;-67
2022/05/28 00:39:19;;;;;;;8.13;1.58;;;15.20;78.20;;;;;;4993371;28;20033;-67
2022/05/28 00:41:45;;;;;;;7.05;1.23;;;15.20;78.30;;;;;;4993985;28;20446;-67
2022/05/28 00:44:11;;;;;;;9.40;1.35;;;15.20;78.00;;;;;;4994449;28;20106;-67
2022/05/28 00:46:37;;;;;;;6.95;1.30;;;15.20;77.90;;;;;;4986978;28;20034;-67
2022/05/28 00:49:07;;;;;;;3.80;1.35;;;15.10;77.90;;;;;;4993125;28;20027;-67
2022/05/28 00:51:49;;;;;;;10.95;1.45;;;15.10;78.00;;;;;;4993907;28;20058;-67
2022/05/28 00:54:15;;;;;;;3.63;1.25;;;15.10;77.50;;;;;;4993391;28;20042;-67
2022/05/28 00:56:41;;;;;;;8.02;1.23;;;15.00;77.10;;;;;;4993494;28;20073;-67
2022/05/28 00:59:08;;;;;;;19.75;2.22;;;15.00;77.00;;;;;;4991893;28;20446;-67
2022/05/28 01:01:37;;;;;;;7.20;1.58;;;15.00;77.10;;;;;;4993135;28;20089;-67
2022/05/28 01:04:03;;;;;;;9.23;1.35;;;15.00;77.40;;;;;;4993852;28;20026;-67
2022/05/28 01:06:50;;;;;;;9.50;1.75;;;14.90;77.50;;;;;;4990895;28;20113;-67
2022/05/28 01:09:51;;;;;;;7.10;1.52;;;15.00;77.70;;;;;;4993835;28;20035;-67
2022/05/28 01:12:41;;;;;;;13.07;2.05;;;14.90;77.80;;;;;;4983551;28;20157;-67
2022/05/28 01:15:12;;;;;;;8.73;1.77;;;14.90;77.80;;;;;;4992965;28;20470;-67
2022/05/28 01:17:51;;;;;;;4.35;1.30;;;14.90;77.90;;;;;;4992599;28;20042;-67
2022/05/28 01:20:30;;;;;;;4.72;1.42;;;14.90;78.10;;;;;;4992815;28;20034;-67
2022/05/28 01:23:09;;;;;;;5.90;0.98;;;14.80;78.10;;;;;;4992721;28;20036;-67
2022/05/28 01:25:52;;;;;;;5.68;1.25;;;14.80;78.20;;;;;;4993300;28;20026;-67
2022/05/28 01:28:20;;;;;;;7.68;1.70;;;14.80;78.30;;;;;;4982064;28;20160;-67
2022/05/28 01:30:47;;;;;;;4.25;0.85;;;14.80;78.40;;;;;;4992347;28;20031;-67
2022/05/28 01:33:15;;;;;;;10.13;1.80;;;14.80;78.40;;;;;;4993255;28;20049;-67
2022/05/28 01:35:43;;;;;;;5.40;1.17;;;14.80;78.40;;;;;;4990136;28;20041;-67
2022/05/28 01:38:11;;;;;;;3.30;1.55;;;14.80;78.50;;;;;;4991798;28;20505;-67
2022/05/28 01:40:39;;;;;;;12.27;1.85;;;14.80;79.30;;;;;;4992375;28;20026;-67
2022/05/28 01:43:08;;;;;;;9.85;1.95;;;14.80;79.00;;;;;;4991067;28;20046;-67
2022/05/28 01:45:36;;;;;;;12.13;1.60;;;14.80;79.00;;;;;;4992421;28;20042;-67
2022/05/28 01:48:06;;;;;;;9.10;1.80;;;14.70;79.00;;;;;;4990644;28;20109;-67
2022/05/28 01:50:43;;;;;;;9.98;2.15;;;14.70;79.20;;;;;;4991926;28;20030;-67
2022/05/28 01:54:06;;;;;;;12.27;2.88;;;14.70;79.30;;;;;;4992375;28;20026;-67
2022/05/28 01:56:04;;;;;;;14.00;3.17;;;14.70;79.20;;;;;;4990752;28;20486;-67
2022/05/28 01:58:31;;;;;;;18.02;2.47;;;14.70;79.10;;;;;;4992993;28;20058;-67
2022/05/28 02:00:58;;;;;;;13.07;1.90;;;14.70;79.10;;;;;;4991446;28;20463;-67
2022/05/28 02:03:25;;;;;;;12.07;1.90;;;14.70;79.20;;;;;;4992408;28;20069;-67
2022/05/28 02:05:51;;;;;;;9.48;1.63;;;14.60;79.00;;;;;;4991873;28;20114;-67
2022/05/28 02:08:17;;;;;;;7.25;1.65;;;14.60;78.90;;;;;;4992464;28;20120;-67
2022/05/28 02:10:49;;;;;;;10.80;2.00;;;14.60;79.00;;;;;;4991496;28;20498;-67
2022/05/28 02:13:29;;;;;;;12.95;2.20;;;14.60;79.00;;;;;;4992020;28;20033;-67
2022/05/28 02:16:04;;;;;;;7.10;1.55;;;14.60;78.80;;;;;;4991615;28;20030;-67
2022/05/28 02:18:42;;;;;;;9.05;1.52;;;14.50;78.50;;;;;;4980351;28;20101;-67
2022/05/28 02:21:26;;;;;;;10.40;1.85;;;14.50;78.60;;;;;;4992000;28;20069;-67
2022/05/28 02:24:10;;;;;;;6.95;1.65;;;14.50;78.60;;;;;;4991618;28;20065;-67
2022/05/28 02:26:43;;;;;;;9.02;1.67;;;14.40;78.70;;;;;;4981688;28;20026;-67
2022/05/28 02:29:10;;;;;;;5.88;1.52;;;14.50;78.90;;;;;;4991044;28;20030;-67
2022/05/28 02:31:43;;;;;;;4.43;1.63;;;14.40;78.90;;;;;;4992007;28;20080;-67
2022/05/28 02:34:09;;;;;;;11.55;2.08;;;14.40;78.90;;;;;;4991184;28;20483;-67
2022/05/28 02:36:34;;;;;;;9.60;1.65;;;14.40;78.90;;;;;;4992773;28;20038;-67
2022/05/28 02:39:00;;;;;;;11.40;1.65;;;14.40;79.00;;;;;;4989604;28;20081;-67
2022/05/28 02:41:26;;;;;;;8.93;2.17;;;14.40;79.00;;;;;;4992634;28;20133;-67
2022/05/28 02:43:52;;;;;;;10.40;2.15;;;14.40;79.00;;;;;;4990772;28;20102;-67
2022/05/28 02:46:18;;;;;;;20.17;2.70;;;14.30;78.90;;;;;;4991799;28;20038;-67
2022/05/28 02:48:45;;;;;;;10.65;2.60;;;14.30;78.90;;;;;;4993477;28;20037;-67
2022/05/28 02:51:14;;;;;;;11.95;2.38;;;14.30;78.90;;;;;;4995250;28;20070;-67
2022/05/28 02:53:40;;;;;;;16.38;2.45;;;14.30;78.90;;;;;;4994760;28;20596;-67
2022/05/28 02:56:07;;;;;;;11.40;1.90;;;14.30;79.10;;;;;;4995993;28;20042;-67
2022/05/28 02:58:33;;;;;;;8.40;1.98;;;14.20;79.10;;;;;;4994444;28;20045;-67
2022/05/28 03:01:01;;;;;;;18.92;2.85;;;14.20;79.00;;;;;;4995918;28;20031;-67
2022/05/28 03:03:27;;;;;;;8.48;2.15;;;14.20;79.00;;;;;;4994877;28;20466;-67
2022/05/28 03:05:53;;;;;;;11.48;2.08;;;14.20;79.00;;;;;;4994791;28;20061;-67
2022/05/28 03:08:19;;;;;;;7.93;1.95;;;14.20;79.10;;;;;;4994774;28;20040;-67
2022/05/28 03:10:45;;;;;;;10.27;2.15;;;14.20;79.20;;;;;;4994973;28;20116;-67
2022/05/28 03:13:11;;;;;;;16.73;2.30;;;14.20;79.30;;;;;;4993805;28;20031;-67
2022/05/28 03:15:37;;;;;;;10.35;2.22;;;14.10;79.50;;;;;;4995626;28;20022;-67
2022/05/28 03:18:03;;;;;;;10.55;1.98;;;14.20;79.60;;;;;;4994643;28;20048;-67
2022/05/28 03:20:30;;;;;;;8.70;1.65;;;14.10;79.50;;;;;;4995117;28;20068;-67
2022/05/28 03:22:57;;;;;;;11.35;2.38;;;14.10;79.50;;;;;;4994363;28;20404;-67
2022/05/28 03:25:23;;;;;;;12.75;2.35;;;14.10;79.20;;;;;;4995720;28;20022;-67
2022/05/28 03:27:49;;;;;;;11.13;2.00;;;14.10;79.10;;;;;;4994195;28;20034;-67
2022/05/28 03:30:15;;;;;;;5.45;1.40;;;14.10;79.20;;;;;;4995113;28;20045;-67
2022/05/28 03:32:40;;;;;;;9.73;2.10;;;14.10;79.30;;;;;;4993537;28;20034;-67
2022/05/28 03:35:07;;;;;;;12.35;2.20;;;14.10;79.40;;;;;;4994829;28;20110;-67
2022/05/28 03:37:33;;;;;;;20.42;2.20;;;14.10;79.50;;;;;;4994073;28;20458;-67
2022/05/28 03:40:06;;;;;;;13.52;1.98;;;14.00;79.50;;;;;;4994991;28;20072;-67
2022/05/28 03:42:31;;;;;;;16.63;1.85;;;14.00;79.90;;;;;;4993751;28;20030;-67
2022/05/28 03:44:57;;;;;;;13.68;2.25;;;14.00;79.70;;;;;;4994435;28;20034;-67
2022/05/28 03:47:23;;;;;;;11.32;2.08;;;14.10;79.80;;;;;;4991850;28;20057;-67
2022/05/28 03:49:48;;;;;;;5.13;1.23;;;14.00;79.80;;;;;;4994692;28;20038;-67
2022/05/28 03:52:14;;;;;;;7.85;1.67;;;14.00;79.70;;;;;;4993709;28;20462;-67
2022/05/28 03:54:43;;;;;;;9.73;1.95;;;14.00;79.70;;;;;;4994131;28;20026;-67
2022/05/28 03:57:19;;;;;;;19.67;2.72;;;14.00;80.00;;;;;;4994346;28;20624;-67
2022/05/28 03:59:44;;;;;;;13.63;2.50;;;14.00;80.10;;;;;;4993950;28;20034;-67
2022/05/28 04:02:11;;;;;;;5.47;2.20;;;14.00;80.30;;;;;;4993108;28;20402;-67
2022/05/28 04:04:37;;;;;;;11.95;1.63;;;14.00;80.20;;;;;;4994420;28;20030;-67
2022/05/28 04:07:03;;;;;;;7.68;1.30;;;14.00;80.50;;;;;;4992566;28;20401;-67
2022/05/28 04:09:29;;;;;;;8.80;1.95;;;14.00;80.50;;;;;;4993855;28;20034;-67
2022/05/28 04:11:55;;;;;;;7.55;1.88;;;14.00;80.50;;;;;;4993554;28;20061;-67
2022/05/28 04:14:21;;;;;;;8.15;2.05;;;14.00;80.50;;;;;;4994467;28;20034;-67
2022/05/28 04:16:46;;;;;;;14.52;1.92;;;14.00;80.80;;;;;;4992985;28;20045;-67
2022/05/28 04:19:12;;;;;;;12.70;1.58;;;14.00;81.30;;;;;;4994332;28;20367;-67
2022/05/28 04:21:38;;;;;;;9.05;1.85;;;14.00;81.20;;;;;;4993578;28;20459;-67
2022/05/28 04:24:04;;;;;;;1.95;1.25;;;14.00;81.10;;;;;;4993462;28;20462;-67
2022/05/28 04:26:30;;;;;;;3.55;1.02;;;14.10;81.90;;;;;;4992653;28;20129;-67
2022/05/28 04:28:55;;;;;;;6.20;1.48;;;14.10;82.00;;;;;;4993998;28;20177;-67
2022/05/28 04:31:21;;;;;;;10.18;1.90;;;14.10;82.10;;;;;;4992608;28;20037;-67
2022/05/28 04:33:47;;;;;;;8.40;1.38;;;14.10;81.90;;;;;;4994476;28;20466;-67
2022/05/28 04:36:12;;;;;;;11.68;2.45;;;14.10;82.00;;;;;;4993499;28;20077;-67
2022/05/28 04:38:38;;;;;;;10.15;2.15;;;14.10;82.00;;;;;;4992370;28;20129;-67
2022/05/28 04:41:04;;;;;;;5.88;1.33;;;14.10;81.80;;;;;;4993981;28;20038;-67
2022/05/28 04:43:30;;;;;;;23.05;3.50;;;14.10;81.70;;;;;;4993180;28;20034;-67
2022/05/28 04:45:55;;;;;;;11.88;1.98;;;14.10;81.90;;;;;;4992839;28;20030;-67
2022/05/28 04:48:21;;;;;;;6.65;1.85;;;14.10;82.00;;;;;;4993471;28;20046;-67
2022/05/28 04:50:47;;;;;;;14.50;2.15;;;14.10;81.60;;;;;;4992827;28;20030;-67
2022/05/28 04:53:12;;;;;;;13.15;2.25;;;14.00;82.10;;;;;;4993008;28;20109;-67
2022/05/28 04:55:39;;;;;;;8.82;2.30;;;14.10;82.40;;;;;;4993615;28;20030;-67
2022/05/28 04:58:05;;;;;;;20.00;3.00;;;14.10;83.00;;;;;;4992474;28;20093;-67
2022/05/28 05:00:33;;;;;;;9.65;2.22;;;14.10;84.20;;;;;;4982527;28;20030;-67
2022/05/28 05:02:59;;;;;;;10.35;2.10;;;14.10;83.70;;;;;;4992523;28;20054;-67
2022/05/28 05:05:24;;;;;;;15.82;2.65;;;14.10;83.90;;;;;;4992642;28;20065;-67
2022/05/28 05:07:50;;;;;;;16.15;2.38;;;14.10;83.90;;;;;;4992224;28;20406;-67
2022/05/28 05:10:16;;;;;;;20.45;2.45;;;14.10;84.20;;;;;;4993445;28;20046;-66
2022/05/28 05:12:41;;;;;;;14.98;2.45;;;14.10;84.40;;;;;;4991316;28;20039;-67
2022/05/28 05:15:07;;;;;;;15.40;3.15;;;14.10;84.80;;;;;;4993451;28;20026;-67
2022/05/28 05:17:33;;;;;;;19.17;3.20;;;14.10;85.30;;;;;;4992095;28;20464;-67
2022/05/28 05:19:59;;;;;;;15.10;2.75;;;14.10;84.80;;;;;;4992165;28;20363;-66
2022/05/28 05:22:24;;;;;;;15.27;2.90;;;14.10;84.70;;;;;;4991945;28;20489;-67
2022/05/28 05:24:53;;;;;;;15.45;2.30;;;14.10;84.50;;;;;;4992859;28;20034;-67
2022/05/28 05:27:19;;;;;;;15.85;2.72;;;14.10;84.00;;;;;;4991494;28;20129;-67
2022/05/28 05:29:45;;;;;;;11.23;2.00;;;14.10;83.70;;;;;;4992824;28;20069;-67
2022/05/28 05:32:10;;;;;;;13.57;2.30;;;14.10;83.30;;;;;;4991258;28;20035;-67
2022/05/28 05:34:37;;;;;;;9.35;1.88;;;14.10;83.10;;;;;;4992274;28;20544;-67
2022/05/28 05:37:04;;;;;;;4.93;1.48;;;14.10;82.90;;;;;;4991979;28;20057;-67
2022/05/28 05:39:30;;;;;;;8.45;1.92;;;14.10;82.60;;;;;;4992892;28;20027;-67
2022/05/28 05:41:56;;;;;;;9.55;2.20;;;14.10;82.80;;;;;;4990912;28;20030;-67
2022/05/28 05:44:21;;;;;;;12.35;2.17;;;14.20;82.90;;;;;;4992370;28;20033;-67
2022/05/28 05:46:47;;;;;;;13.00;2.28;;;14.20;83.30;;;;;;4992560;28;20038;-67
2022/05/28 05:49:13;;;;;;;12.73;1.98;;;14.10;83.20;;;;;;4990946;28;20034;-67
2022/05/28 05:51:44;;;;;;;8.65;1.60;;;14.20;83.10;;;;;;4992641;28;20034;-67
2022/05/28 05:54:10;;;;;;;8.98;1.63;;;14.20;83.00;;;;;;4980156;28;20070;-67
2022/05/28 05:56:36;;;;;;;8.90;1.75;;;14.20;82.80;;;;;;4991760;28;20081;-67
2022/05/28 05:59:02;;;;;;;10.30;1.80;;;14.30;82.80;;;;;;4992457;28;20045;-67
2022/05/28 06:01:31;;;;;;;19.60;3.00;;;14.30;82.80;;;;;;4990921;28;20026;-67
2022/05/28 06:03:57;;;;;;;18.30;2.63;;;14.30;83.20;;;;;;4992336;28;20042;-67
2022/05/28 06:06:23;;;;;;;6.50;2.03;;;14.30;83.40;;;;;;4991717;28;20030;-67
2022/05/28 06:08:49;;;;;;;3.88;1.33;;;14.40;83.10;;;;;;4991967;28;20070;-67
2022/05/28 06:11:15;;;;;;;12.45;2.38;;;14.40;82.90;;;;;;4990655;28;20077;-67
2022/05/28 06:13:41;;;;;;;5.70;1.23;;;14.40;82.70;;;;;;4991897;28;20088;-67
2022/05/28 06:16:08;;;;;;;18.13;2.33;;;14.40;82.60;;;;;;4988362;28;20030;-67
2022/05/28 06:18:34;;;;;;;8.40;2.25;;;14.50;82.60;;;;;;4990196;28;20066;-67
2022/05/28 06:21:01;;;;;;;6.88;1.35;;;14.40;82.60;;;;;;4988704;28;20213;-67
2022/05/28 06:23:27;;;;;;;11.02;2.00;;;14.40;82.60;;;;;;4990226;28;20049;-67
2022/05/28 06:25:53;;;;;;;13.30;2.97;;;14.50;83.30;;;;;;4995736;28;20050;-67
2022/05/28 06:28:20;;;;;;;18.05;2.45;;;14.50;82.80;;;;;;4996574;28;20041;-67
2022/05/28 06:30:47;;;;;;;4.85;1.45;;;14.50;82.80;;;;;;4994825;28;20030;-67
2022/05/28 06:33:13;;;;;;;11.23;1.92;;;14.50;82.60;;;;;;4996543;28;20362;-67
2022/05/28 06:35:39;;;;;;;11.48;2.17;;;14.60;82.90;;;;;;4995521;28;20037;-67
2022/05/28 06:38:05;;;;;;;9.07;2.05;;;14.60;83.30;;;;;;4997093;28;20049;-67
2022/05/28 06:40:31;;;;;;;12.65;2.33;;;14.60;83.10;;;;;;4998222;28;20022;-67
2022/05/28 06:42:57;;;;;;;12.85;2.72;;;14.60;83.10;;;;;;4997514;28;20375;-66
2022/05/28 06:45:24;;;;;;;8.27;1.83;;;14.60;83.20;;;;;;4996568;28;20461;-67
2022/05/28 06:47:51;;;;;;;23.13;2.90;;;14.60;82.90;;;;;;4997880;28;20042;-70
2022/05/28 06:53:03;;;;;;;9.95;1.85;;;14.60;83.50;;;;;;4996427;28;20034;-67
2022/05/28 06:55:29;;;;;;;5.63;1.27;;;14.60;83.00;;;;;;4997267;28;20054;-68
2022/05/28 06:57:55;;;;;;;11.38;1.90;;;14.70;83.00;;;;;;4992800;28;20446;-67
2022/05/28 07:00:21;;;;;;;15.88;2.60;;;14.70;82.90;;;;;;4997728;28;20060;-70
2022/05/28 07:02:46;;;;;;;11.60;2.38;;;14.80;82.90;;;;;;4995460;28;20026;-70
2022/05/28 07:05:14;;;;;;;6.45;1.77;;;14.80;82.90;;;;;;4996825;28;20109;-69
2022/05/28 07:07:41;;;;;;;8.32;1.58;;;14.80;82.80;;;;;;4994775;28;20120;-69
2022/05/28 07:10:08;;;;;;;13.20;2.15;;;14.90;82.80;;;;;;4994627;28;20080;-67
2022/05/28 07:12:33;;;;;;;4.80;1.67;;;14.90;82.80;;;;;;4994229;28;20088;-69
2022/05/28 07:14:59;;;;;;;6.53;1.50;;;14.90;82.60;;;;;;4994907;28;20018;-73
2022/05/28 07:17:25;;;;;;;10.80;2.70;;;14.90;82.50;;;;;;4992655;28;20030;-67
2022/05/28 07:19:51;;;;;;;9.95;1.80;;;14.90;82.50;;;;;;4992505;28;20037;-67
2022/05/28 07:22:20;;;;;;;17.83;2.53;;;15.00;82.40;;;;;;4994546;28;20490;-68
2022/05/28 07:24:45;;;;;;;13.55;3.33;;;15.00;82.30;;;;;;4993797;28;20053;-68
2022/05/28 07:27:12;;;;;;;11.02;1.80;;;15.10;82.20;;;;;;4996084;28;20038;-68
2022/05/28 07:29:41;;;;;;;13.55;2.13;;;15.10;82.10;;;;;;4996508;28;20018;-68
2022/05/28 07:32:07;;;;;;;10.00;2.70;;;15.10;81.90;;;;;;4996041;28;20148;-68
2022/05/28 07:34:34;;;;;;;10.38;3.13;;;15.10;82.00;;;;;;4992587;28;20018;-68
2022/05/28 07:36:59;;;;;;;15.13;3.45;;;15.10;82.30;;;;;;4993008;28;20026;-68
2022/05/28 07:39:25;;;;;;;11.85;2.42;;;15.10;82.50;;;;;;4991190;28;20057;-68
2022/05/28 07:41:51;;;;;;;11.57;2.13;;;15.10;82.50;;;;;;4990240;28;20080;-68
2022/05/28 07:44:18;;;;;;;16.00;3.28;;;15.20;82.50;;;;;;4988950;28;20040;-67
2022/05/28 07:46:44;;;;;;;11.70;2.40;;;15.20;82.70;;;;;;4990924;28;20035;-68
2022/05/28 07:49:10;;;;;;;13.73;2.80;;;15.20;82.70;;;;;;4991338;28;20065;-68
2022/05/28 07:51:37;;;;;;;8.00;2.10;;;15.20;82.50;;;;;;4989361;28;20018;-68
2022/05/28 07:54:04;;;;;;;3.10;1.48;;;15.30;82.20;;;;;;4990634;28;20030;-68
2022/05/28 07:56:30;;;;;;;10.25;2.67;;;15.30;82.10;;;;;;4991017;28;20023;-67
2022/05/28 07:58:57;;;;;;;10.77;2.22;;;15.30;81.70;;;;;;4991614;28;20048;-67
2022/05/28 08:01:26;;;;;;;13.75;2.83;;;15.30;81.90;;;;;;4990558;28;20049;-70
2022/05/28 08:03:52;;;;;;;16.70;3.60;;;15.30;82.10;;;;;;4993045;28;20038;-68
2022/05/28 08:06:19;;;;;;;12.13;2.33;;;15.30;82.00;;;;;;4991892;28;20386;-69
2022/05/28 08:08:45;;;;;;;6.63;1.83;;;15.30;81.90;;;;;;4993380;28;20042;-69
2022/05/28 08:11:11;;;;;;;6.97;1.73;;;15.30;82.00;;;;;;4993788;28;20081;-69
2022/05/28 08:13:40;;;;;;;5.93;1.95;;;15.40;82.10;;;;;;4983304;28;20035;-68
2022/05/28 08:16:06;;;;;;;6.82;1.95;;;15.40;82.20;;;;;;4991784;28;20041;-68
2022/05/28 08:18:32;;;;;;;8.52;1.45;;;15.40;82.30;;;;;;4993221;28;20050;-68
2022/05/28 08:23:43;;;;;;;21.00;3.53;;;15.50;82.60;;;;;;4991480;28;21611;-65
2022/05/28 08:26:11;;;;;;;9.43;1.85;;;15.50;80.30;;;;;;4990862;28;20080;-65
2022/05/28 08:28:39;;;;;;;15.48;3.92;;;15.50;81.30;;;;;;4991832;28;20030;-69
2022/05/28 08:31:05;;;;;;;9.25;2.17;;;15.50;81.50;;;;;;4992944;28;20034;-69
2022/05/28 08:33:32;;;;;;;10.73;2.45;;;15.50;80.80;;;;;;4992889;28;20525;-69
2022/05/28 08:35:59;;;;;;;4.88;1.35;;;15.50;81.10;;;;;;4992466;28;20459;-68
2022/05/28 08:38:26;;;;;;;9.50;1.80;;;15.50;81.70;;;;;;4994273;28;20049;-69
2022/05/28 08:40:56;;;;;;;17.90;2.25;;;15.60;81.90;;;;;;4993093;28;20359;-69
2022/05/28 08:43:26;;;;;;;14.65;2.70;;;15.60;80.80;;;;;;4993535;28;20462;-69
2022/05/28 08:45:52;;;;;;;8.40;1.88;;;15.70;81.10;;;;;;4991945;28;20493;-69
2022/05/28 08:48:31;;;;;;;6.18;1.35;;;15.70;80.90;;;;;;4992007;28;20030;-69
2022/05/28 08:51:08;;;;;;;2.25;0.90;;;15.60;80.80;;;;;;4991823;28;20085;-69
2022/05/28 08:53:41;;;;;;;7.53;1.88;;;15.60;80.80;;;;;;4991834;28;20553;-69
2022/05/28 08:56:08;;;;;;;7.78;2.13;;;15.70;81.00;;;;;;4993380;28;20080;-69
2022/05/28 08:58:35;;;;;;;8.52;1.00;;;15.70;80.90;;;;;;4991021;28;20074;-69
2022/05/28 09:01:13;;;;;;;9.82;2.28;;;15.70;81.20;;;;;;4993432;28;20065;-69
2022/05/28 09:03:48;;;;;;;11.10;2.40;;;15.80;81.30;;;;;;4992765;28;20121;-69
2022/05/28 09:06:31;;;;;;;5.55;1.33;;;15.80;80.80;;;;;;4991714;28;20039;-69
2022/05/28 09:08:56;;;;;;;18.98;3.30;;;15.80;81.20;;;;;;4982699;28;20085;-69
2022/05/28 09:11:39;;;;;;;9.80;2.03;;;15.80;81.40;;;;;;4991602;28;20785;-69
2022/05/28 09:14:30;;;;;;;6.82;1.25;;;15.90;81.40;;;;;;4992904;28;20505;-68
2022/05/28 09:17:00;;;;;;;14.63;1.95;;;15.90;81.30;;;;;;4975250;28;20045;-68
2022/05/28 09:19:40;;;;;;;10.73;1.92;;;15.90;81.10;;;;;;4991623;28;20045;-69
2022/05/28 09:22:06;;;;;;;13.40;2.08;;;15.90;81.30;;;;;;4993328;28;20125;-69
2022/05/28 09:24:33;;;;;;;14.40;2.05;;;16.00;80.20;;;;;;4992679;28;20530;-69
2022/05/28 09:27:34;;;;;;;8.60;1.27;;;16.00;79.60;;;;;;4992097;28;20038;-69
2022/05/28 09:30:15;;;;;;;5.90;1.52;;;16.00;80.50;;;;;;4983849;28;20069;-69
2022/05/28 09:32:50;;;;;;;11.85;1.77;;;16.00;80.60;;;;;;4991453;28;20069;-69
2022/05/28 09:35:34;;;;;;;9.85;1.33;;;16.00;80.90;;;;;;4992836;28;20057;-69
2022/05/28 09:38:38;;;;;;;7.28;1.52;;;16.00;81.20;;;;;;4980652;28;20038;-68
2022/05/28 09:41:10;;;;;;;;;;;16.00;80.70;;;;;;4989642;28;20135;-67
2022/05/28 09:43:38;;;;;;;7.65;1.63;;;16.00;80.80;;;;;;4990167;28;19956;-66
2022/05/28 09:46:09;;;;;;;8.30;1.42;;;16.10;79.50;;;;;;4989102;28;20037;-68
2022/05/28 09:48:35;;;;;;;2.22;0.80;;;16.10;79.80;;;;;;4989368;28;20030;-66
2022/05/28 09:51:01;;;;;;;11.57;1.65;;;16.10;80.40;;;;;;4989094;28;20031;-67
2022/05/28 09:56:25;;;;;;;6.35;1.27;;;16.20;80.10;;;;;;4991618;28;20042;-67
2022/05/28 09:58:51;;;;;;;5.78;1.25;;;16.20;80.00;;;;;;4990789;28;20050;-67
2022/05/28 10:01:27;;;;;;;5.45;1.08;;;16.20;80.00;;;;;;4990856;28;20125;-67
2022/05/28 10:06:46;;;;;;;9.50;1.77;;;16.30;79.50;;;;;;4991511;28;20164;-67
2022/05/28 10:09:18;;;;;;;7.90;1.67;;;16.30;79.30;;;;;;4991952;28;20073;-66
2022/05/28 10:12:13;;;;;;;8.02;2.05;;;16.20;77.60;;;;;;4991499;28;20065;-66
2022/05/28 10:14:39;;;;;;;4.22;1.30;;;16.20;78.40;;;;;;4990540;28;20401;-67
2022/05/28 10:17:05;;;;;;;9.23;1.75;;;16.30;78.30;;;;;;4987107;28;20042;-66
2022/05/28 10:19:37;;;;;;;5.13;1.05;;;16.30;79.00;;;;;;4986406;28;20030;-66
2022/05/28 10:22:10;;;;;;;16.00;1.60;;;16.30;79.30;;;;;;4986822;28;20198;-67
2022/05/28 10:24:46;;;;;;;5.85;1.38;;;16.40;78.70;;;;;;4989177;28;20034;-67
2022/05/28 10:27:33;;;;;;;4.93;1.58;;;16.40;77.80;;;;;;4990013;28;20042;-67
2022/05/28 10:30:02;;;;;;;8.23;1.83;;;16.50;78.40;;;;;;4985954;28;20027;-67
2022/05/28 10:32:40;;;;;;;6.60;2.17;;;16.50;77.10;;;;;;4985403;28;20493;-67
2022/05/28 10:35:25;;;;;;;11.93;1.98;;;16.40;77.30;;;;;;4985938;28;20022;-67
2022/05/28 10:38:06;;;;;;;2.20;0.82;;;16.60;77.60;;;;;;4985363;28;20046;-67
2022/05/28 10:40:32;;;;;;;12.85;2.30;;;16.60;78.30;;;;;;4986481;28;20104;-67
2022/05/28 10:43:03;;;;;;;9.65;1.50;;;16.60;77.70;;;;;;4984968;28;20034;-68
2022/05/28 10:45:36;;;;;;;12.18;1.63;;;16.70;75.90;;;;;;4986578;28;20109;-69
2022/05/28 10:48:40;;;;;;;9.30;1.75;;;16.70;76.80;;;;;;4987118;28;20729;-68
2022/05/28 10:51:30;;;;;;;11.43;1.63;;;16.70;77.40;;;;;;4985598;28;20528;-69
2022/05/28 10:54:07;;;;;;;7.10;1.35;;;16.70;76.90;;;;;;4985849;28;20536;-68
2022/05/28 10:56:55;;;;;;;7.60;2.00;;;16.70;77.60;;;;;;4985929;28;20043;-68
2022/05/28 10:59:42;;;;;;;9.48;1.70;;;16.80;77.10;;;;;;4987238;28;20057;-68
2022/05/28 11:02:30;;;;;;;9.55;2.13;;;16.70;76.60;;;;;;4985553;28;20030;-67
2022/05/28 11:05:03;;;;;;;11.88;2.20;;;16.80;76.60;;;;;;4985219;28;20486;-68
2022/05/28 11:07:46;;;;;;;17.25;2.20;;;16.80;77.00;;;;;;4988759;28;20054;-66
2022/05/28 11:10:38;;;;;;;8.40;1.85;;;16.80;76.20;;;;;;4990387;28;20037;-66
2022/05/28 11:13:49;;;;;;;4.47;1.60;;;16.80;76.40;;;;;;4988595;28;20541;-65
2022/05/28 11:16:38;;;;;;;7.70;1.70;;;16.80;76.50;;;;;;4981825;28;20309;-68
2022/05/28 11:19:23;;;;;;;6.18;1.63;;;16.90;76.50;;;;;;4989530;28;20461;-68
2022/05/28 11:22:31;;;;;;;10.98;1.75;;;16.90;76.90;;;;;;4991603;28;20466;-66
2022/05/28 11:25:05;;;;;;;16.63;2.08;;;16.90;76.90;;;;;;4990714;28;20118;-67
2022/05/28 11:27:40;;;;;;;3.35;1.10;;;16.90;75.30;;;;;;4992277;28;20121;-66
2022/05/28 11:30:12;;;;;;;14.25;1.88;;;16.90;76.20;;;;;;4992751;28;20034;-66
2022/05/28 11:32:43;;;;;;;6.55;1.65;;;17.00;76.10;;;;;;4991155;28;20495;-66
2022/05/28 11:35:38;;;;;;;5.55;1.35;;;17.00;76.90;;;;;;4992427;28;20364;-64
2022/05/28 11:38:26;;;;;;;8.88;1.55;;;17.00;76.90;;;;;;4990499;28;20247;-64
2022/05/28 11:41:27;;;;;;;10.35;1.75;;;17.10;76.80;;;;;;4990749;28;20066;-64
2022/05/28 11:44:12;;;;;;;8.02;2.10;;;17.20;75.30;;;;;;4990914;28;20125;-64
2022/05/28 11:47:08;;;;;;;8.55;1.75;;;17.20;75.20;;;;;;4989602;28;20029;-64
2022/05/28 11:52:21;;;;;;;10.23;1.70;;;17.30;75.40;;;;;;4991210;28;20037;-67
2022/05/28 11:54:54;;;;;;;6.22;1.05;;;17.20;76.10;;;;;;4993159;28;20433;-67
2022/05/28 11:57:29;;;;;;;8.45;1.65;;;17.20;76.90;;;;;;4989851;28;20045;-67
2022/05/28 11:59:57;;;;;;;8.85;1.52;;;17.30;77.40;;;;;;4992979;28;20026;-69
2022/05/28 12:02:32;;;;;;;10.32;1.45;;;17.20;77.40;;;;;;4993646;28;20066;-67
2022/05/28 12:04:57;;;;;;;7.90;1.35;;;17.20;77.70;;;;;;4993445;28;20096;-66
2022/05/28 12:07:34;;;;;;;12.25;2.10;;;17.30;78.10;;;;;;4993041;28;20474;-64
2022/05/28 12:10:04;;;;;;;9.95;1.70;;;17.30;78.00;;;;;;4993675;28;20414;-69
2022/05/28 12:12:51;;;;;;;7.78;1.63;;;17.30;78.50;;;;;;4993530;28;20042;-66
2022/05/28 12:15:17;;;;;;;13.13;2.30;;;17.30;78.10;;;;;;4992323;28;20041;-64
2022/05/28 12:18:06;;;;;;;10.38;1.67;;;17.30;77.00;;;;;;4993586;28;20047;-63
2022/05/28 12:20:47;;;;;;;7.30;1.52;;;17.40;77.80;;;;;;4991156;28;20069;-65
2022/05/28 12:23:12;;;;;;;5.28;1.45;;;17.40;78.20;;;;;;4990261;28;20957;-64
2022/05/28 12:25:39;;;;;;;4.10;1.48;;;17.40;78.00;;;;;;4990086;28;20033;-64
2022/05/28 12:28:11;;;;;;;13.93;3.35;;;17.30;77.40;;;;;;4988614;28;20089;-64
2022/05/28 12:30:39;;;;;;;11.13;1.70;;;17.40;77.60;;;;;;4991341;28;20030;-65
2022/05/28 12:33:17;;;;;;;6.88;1.60;;;17.30;78.20;;;;;;4987471;28;20284;-64
2022/05/28 12:36:02;;;;;;;9.40;1.90;;;17.40;77.80;;;;;;4987227;28;20061;-66
2022/05/28 12:38:40;;;;;;;12.23;1.63;;;17.40;78.30;;;;;;4988753;28;20051;-66
2022/05/28 12:41:19;;;;;;;6.35;1.52;;;17.40;77.80;;;;;;4989614;28;20050;-66
2022/05/28 12:44:11;;;;;;;7.75;1.30;;;17.40;78.10;;;;;;4986607;28;20030;-66
2022/05/28 12:46:41;;;;;;;8.45;1.92;;;17.40;78.30;;;;;;4969084;28;20042;-67
2022/05/28 12:49:20;;;;;;;5.00;1.00;;;17.40;75.30;;;;;;4987298;28;20045;-67
2022/05/28 12:52:07;;;;;;;15.73;1.88;;;17.30;75.30;;;;;;4987721;28;20042;-67
2022/05/28 12:54:36;;;;;;;5.00;1.60;;;17.40;76.00;;;;;;4988185;28;20113;-67
2022/05/28 12:57:27;;;;;;;6.20;1.70;;;17.40;75.50;;;;;;4987005;28;20419;-67
2022/05/28 13:00:23;;;;;;;8.95;1.40;;;17.50;73.30;;;;;;4986293;28;20046;-66
2022/05/28 13:02:50;;;;;;;4.57;1.20;;;17.60;75.80;;;;;;4988324;28;20046;-66
2022/05/28 13:05:32;;;;;;;7.50;1.70;;;17.60;76.70;;;;;;4986348;28;20145;-66
2022/05/28 13:08:11;;;;;;;12.80;1.70;;;17.60;75.60;;;;;;4986474;28;20039;-65
2022/05/28 13:10:45;;;;;;;8.32;2.05;;;17.70;75.70;;;;;;4986564;28;20042;-65
2022/05/28 13:13:17;;;;;;;9.85;2.05;;;17.70;76.20;;;;;;4987357;28;20030;-65
2022/05/28 13:16:00;;;;;;;11.82;1.67;;;17.80;76.70;;;;;;4991019;28;20049;-65